Strona główna
METAR-TAF:

METAR-TAF

Lotnisko :

Port lotniczy Antwerpia

Antwerpia, Belgia

Szerokość geograficzna: 51-12N, Długość geograficzna: 004-28E, wysokość: 12 m

Aktualna obserwacja pogody

Raport powstał 32 minut temu, godzina 06:20 UTC
Wiatr 6 kt od zachód
Temperatura 17°C
Wilgotność 82%
Ciśnienie 1019 hPa
Widzialność 10 km lub więcej
Mało chmury na wysokości 1000 ft

METAR: EBAW 210620Z 26006KT 9999 FEW010 17/14 Q1019 NOSIG

czas: 08:52 (06:52 UTC)

Prognoza

Raport powstał 1 godzina i 42 minut temu, godzina 05:10 UTC
Prognoza ważna od 21 godzina 06 UTC do 21 godzina 15 UTC
Wiatr 7 kt od zachodnio-południowy zachód
Widzialność 10 km lub więcej
Mało chmury na wysokości 2000 ft
Rozproszone chmury na wysokości 4500 ft

TAF: EBAW 210510Z 2106/2115 25007KT 9999 FEW020 SCT045

Obserwacja i prognoza pogody dla ponad 4000 lotnisk (raport METAR i TAF).

Dostępne stacje oznaczono żółtymi i czerwonymi punktami na mapie.

Najedź kursorem aby zobaczyć nazwę stacji.

Kliknij aby zobaczyć obserwacje i prognozy pogody.

Aby zmienić mapę: kliknij na zielony przycisk z czarnym krzyżykiem, aby powiększyć; na zielony przycisk z myślnikiem, aby pomniejszyć; na zielone strzałki, aby przejść do map sąsiednich.


METAR-TAF: